Latest Weather Observations for Larapuna (Eddystone Point)

IDT60801

Issued at 2:32 pm EDT Friday 19 January 2018 (issued every 30 minutes, with the page automatically refreshed every 10 minutes)

About weather observations | Map of weather stations | Latest weather observations for TAS | Other Formats
Station Details ID: 092045 Name: LARAPUNA (EDDYSTONE POINT) Lat: -40.99 Lon: 148.35 Height: 19.7 m
Data from the previous 72 hours. | See also: Recent months at Larapuna (Eddystone Point)
Date/Time
EDT
Temp
°C
App
Temp
°C
Dew
Point
°C
Rel
Hum
%
Delta-T
°C
Wind Press
QNH
hPa
Press
MSL
hPa
Rain since
9am
mm
Dir  Spd
km/h
Gust
km/h
Spd
kts
Gust
kts
19/02:30pm 23.7 17.9 16.0 62 4.7 NNW 41 48 22 26 1007.9 1007.9 0.0
19/02:00pm 25.1 20.3 15.7 56 5.7 NNW 35 46 19 25 1008.0 1008.0 0.0
19/01:32pm 29.9 24.4 12.3 33 10.3 NW 33 48 18 26 1008.3 1008.3 0.0
19/01:30pm 38.1 29.3 1.2 10 18.9 WNW 37 52 20 28 1008.2 1008.2 0.0
19/01:02pm 37.4 28.9 0.7 10 18.6 WNW 35 54 19 29 1008.2 1008.2 0.0
19/01:00pm 37.0 28.3 1.7 11 18.2 WNW 37 54 20 29 1008.2 1008.2 0.0
19/12:31pm 36.8 30.4 6.9 16 16.6 WNW 30 48 16 26 1008.3 1008.3 0.0
19/12:30pm 36.4 29.5 6.6 16 16.5 WNW 32 48 17 26 1008.3 1008.3 0.0
19/12:00pm 36.4 30.5 7.4 17 16.3 WNW 28 54 15 29 1008.3 1008.3 0.0
19/11:49am 35.5 28.7 4.9 15 16.4 WNW 30 48 16 26 1008.3 1008.3 0.0
19/11:35am 32.0 29.3 11.7 28 11.9 NNW 17 30 9 16 1008.4 1008.4 0.0
19/11:30am 26.1 24.4 14.6 49 6.9 NNW 17 24 9 13 1008.6 1008.6 0.0
19/11:00am 23.8 22.2 16.1 62 4.7 N 19 33 10 18 1008.8 1008.8 0.0
19/10:30am 22.9 19.7 16.2 66 4.1 NNW 28 33 15 18 1008.9 1008.9 0.0
19/10:00am 22.1 19.6 16.1 69 3.6 N 24 30 13 16 1009.0 1009.0 0.0
19/09:30am 22.1 20.2 15.7 67 3.8 N 20 26 11 14 1009.2 1009.2 0.0
19/09:00am 21.7 19.7 15.5 68 3.7 N 20 26 11 14 1009.1 1009.1 0.0
19/08:30am 21.9 20.7 15.0 65 4.1 N 15 17 8 9 1009.1 1009.1 0.0
19/08:00am 21.3 21.0 15.4 69 3.5 NNW 11 15 6 8 1009.0 1009.0 0.0
19/07:30am 18.8 17.8 14.7 77 2.4 NW 13 17 7 9 1008.9 1008.9 0.0
19/07:00am 17.5 15.5 14.0 80 2.0 NW 17 19 9 10 1008.7 1008.7 0.0
19/06:30am 16.2 14.4 13.3 83 1.6 NW 15 17 8 9 1008.6 1008.6 0.0
19/06:00am 16.1 14.6 13.2 83 1.6 NNW 13 15 7 8 1008.6 1008.6 0.0
19/05:30am 16.5 15.0 13.2 81 1.8 N 13 13 7 7 1008.6 1008.6 0.0
19/05:00am 17.5 16.8 13.2 76 2.4 N 9 15 5 8 1008.6 1008.6 0.0
19/04:30am 17.7 17.4 12.8 73 2.7 NW 6 9 3 5 1008.9 1008.9 0.0
19/04:00am 18.1 17.8 13.4 74 2.7 NW 7 9 4 5 1009.0 1009.0 0.0
19/03:30am 17.1 16.3 14.0 82 1.8 WSW 11 13 6 7 1009.5 1009.5 0.0
19/03:00am 16.9 16.0 13.8 82 1.8 WNW 11 13 6 7 1009.7 1009.7 0.0
19/02:30am 17.6 16.4 13.9 79 2.1 NW 13 19 7 10 1010.0 1010.0 0.0
19/02:00am 17.6 15.9 13.7 78 2.2 NW 15 17 8 9 1010.2 1010.2 0.0
19/01:30am 18.1 16.9 14.0 77 2.3 NW 13 19 7 10 1010.2 1010.2 0.0
19/01:00am 19.2 16.5 14.7 75 2.6 WNW 22 28 12 15 1010.5 1010.5 0.0
19/12:30am 19.2 16.4 15.3 78 2.3 WNW 24 28 13 15 1010.7 1010.7 0.0
19/12:00am 18.4 16.2 16.0 86 1.4 WNW 22 28 12 15 1011.0 1011.0 0.0
 
Date/Time
EDT
Temp
°C
App
Temp
°C
Dew
Point
°C
Rel
Hum
%
Delta-T
°C
Wind Press
QNH
hPa
Press
MSL
hPa
Rain since
9am
mm
Dir  Spd
km/h
Gust
km/h
Spd
kts
Gust
kts
18/11:30pm 18.2 16.1 16.2 88 1.2 NW 22 26 12 14 1011.2 1011.2 0.0
18/11:00pm 18.7 15.7 16.9 89 1.1 NW 28 35 15 19 1011.3 1011.3 0.0
18/10:30pm 18.9 16.4 17.0 89 1.1 NNW 26 33 14 18 1011.4 1011.4 0.0
18/10:00pm 19.0 16.5 17.0 88 1.2 NNW 26 32 14 17 1011.4 1011.4 0.0
18/09:30pm 19.3 17.1 16.9 86 1.5 NNW 24 33 13 18 1011.3 1011.3 0.0
18/09:00pm 19.4 16.4 16.8 85 1.6 NNW 28 33 15 18 1011.3 1011.3 0.0
18/08:30pm 19.3 16.9 16.5 84 1.7 NNW 24 30 13 16 1011.3 1011.3 0.0
18/08:00pm 19.5 17.1 16.5 83 1.8 N 24 32 13 17 1011.4 1011.4 0.0
18/07:30pm 19.6 18.0 16.4 82 1.9 N 20 24 11 13 1011.7 1011.7 0.0
18/07:00pm 19.8 17.0 16.4 81 2.0 N 26 32 14 17 1011.7 1011.7 0.0
18/06:30pm 20.1 16.9 16.3 79 2.3 N 28 35 15 19 1011.7 1011.7 0.0
18/06:00pm 20.3 16.1 16.1 77 2.5 N 33 41 18 22 1011.8 1011.8 0.0
18/05:30pm 21.1 17.1 16.3 74 2.9 N 32 37 17 20 1012.3 1012.3 0.0
18/05:00pm 20.6 16.0 16.2 76 2.6 N 35 44 19 24 1012.5 1012.5 0.0
18/04:30pm 20.9 15.5 16.1 74 2.9 N 39 48 21 26 1012.5 1012.5 0.0
18/04:00pm 21.1 15.7 15.9 72 3.1 N 39 48 21 26 1012.8 1012.8 0.0
18/03:30pm 21.3 16.6 15.8 71 3.3 N 35 46 19 25 1013.2 1013.2 0.0
18/03:00pm 22.1 16.6 15.7 67 3.8 N 39 46 21 25 1013.6 1013.6 0.0
18/02:30pm 22.0 17.6 15.6 67 3.8 N 33 41 18 22 1013.8 1013.8 0.0
18/02:00pm 22.8 19.1 15.9 65 4.2 N 30 35 16 19 1014.1 1014.1 0.0
18/01:30pm 22.1 19.2 15.0 64 4.2 NNE 24 28 13 15 1014.8 1014.8 0.0
18/01:00pm 20.9 18.5 14.5 67 3.7 N 20 24 11 13 1015.1 1015.1 0.0
18/12:30pm 21.4 18.8 15.0 67 3.8 NNE 22 24 12 13 1015.5 1015.5 0.0
18/12:00pm 21.0 17.1 14.4 66 3.9 NNE 28 30 15 16 1015.6 1015.6 0.0
18/11:30am 22.0 17.6 12.8 56 5.2 N 28 33 15 18 1016.0 1016.0 0.0
18/11:00am 19.7 16.4 13.9 69 3.3 N 24 30 13 16 1016.3 1016.3 0.0
18/10:30am 20.2 18.0 15.0 72 3.1 N 20 26 11 14 1016.4 1016.4 0.0
18/10:00am 20.6 18.6 15.4 72 3.1 N 20 24 11 13 1016.8 1016.8 0.0
18/09:30am 20.6 19.1 15.2 71 3.2 N 17 20 9 11 1016.8 1016.8 0.0
18/09:00am 20.0 17.7 14.1 69 3.4 NW 19 22 10 12 1016.9 1016.9 0.0
18/08:30am 18.7 17.2 15.2 80 2.1 NW 17 22 9 12 1016.8 1016.8 0.0
18/08:00am 17.2 15.5 14.8 86 1.4 NW 17 20 9 11 1016.8 1016.8 0.0
18/07:30am 15.9 13.5 13.9 88 1.1 NW 19 22 10 12 1016.5 1016.5 0.0
18/07:00am 14.1 11.6 12.3 89 1.0 WNW 17 20 9 11 1016.5 1016.5 0.0
18/06:30am 13.9 11.0 12.3 90 0.9 WNW 19 24 10 13 1016.4 1016.4 0.0
18/06:00am 13.3 11.3 11.5 89 1.0 WNW 13 19 7 10 1016.4 1016.4 0.0
18/05:30am 13.5 11.2 11.7 89 1.0 NW 15 19 8 10 1016.3 1016.3 0.0
18/05:00am 13.8 10.8 11.8 88 1.1 WNW 19 20 10 11 1016.4 1016.4 0.0
18/04:30am 14.0 10.8 12.0 88 1.1 WNW 20 24 11 13 1016.5 1016.5 0.0
18/04:00am 13.7 11.0 11.6 87 1.1 WNW 17 20 9 11 1016.6 1016.6 0.0
18/03:30am 13.9 10.9 11.8 87 1.1 WNW 19 20 10 11 1016.8 1016.8 0.0
18/03:00am 13.7 11.0 11.8 88 1.0 WNW 17 20 9 11 1016.8 1016.8 0.0
18/02:30am 14.3 12.1 12.0 86 1.2 NW 15 17 8 9 1017.0 1017.0 0.0
18/02:00am 14.5 12.0 12.2 86 1.2 NW 17 19 9 10 1017.2 1017.2 0.0
18/01:30am 14.5 12.2 11.7 83 1.5 NW 15 19 8 10 1017.4 1017.4 0.0
18/01:00am 15.3 14.2 11.9 80 1.8 NW 9 11 5 6 1017.9 1017.9 0.0
18/12:30am 15.6 14.2 12.2 80 1.9 NW 11 13 6 7 1018.1 1018.1 0.0
18/12:00am 15.3 14.3 12.2 82 1.7 W 9 13 5 7 1017.9 1017.9 0.0
 
Date/Time
EDT
Temp
°C
App
Temp
°C
Dew
Point
°C
Rel
Hum
%
Delta-T
°C
Wind Press
QNH
hPa
Press
MSL
hPa
Rain since
9am
mm
Dir  Spd
km/h
Gust
km/h
Spd
kts
Gust
kts
17/11:30pm 15.5 13.4 12.3 81 1.7 WNW 15 20 8 11 1017.8 1017.8 0.0
17/11:00pm 16.4 13.3 13.3 82 1.7 NNW 22 28 12 15 1017.8 1017.8 0.0
17/10:30pm 16.3 13.0 12.7 79 2.0 NNW 22 28 12 15 1018.0 1018.0 0.0
17/10:00pm 16.8 13.8 12.5 76 2.4 NNW 20 24 11 13 1017.7 1017.7 0.0
17/09:30pm 17.5 15.0 12.4 72 2.8 NNW 17 22 9 12 1018.0 1018.0 0.0
17/09:00pm 17.8 15.7 12.5 71 2.9 NNW 15 20 8 11 1017.7 1017.7 0.0
17/08:30pm 18.5 15.7 12.7 69 3.2 NW 19 22 10 12 1017.5 1017.5 0.0
17/08:00pm 19.3 16.8 13.5 69 3.3 NW 19 26 10 14 1017.4 1017.4 0.0
17/07:30pm 18.8 16.3 14.1 74 2.7 NNW 20 28 11 15 1017.1 1017.1 0.0
17/07:00pm 19.2 15.6 14.2 73 2.9 NNW 26 32 14 17 1016.9 1016.9 0.0
17/06:30pm 19.2 14.5 14.2 73 2.9 NNW 32 37 17 20 1016.7 1016.7 0.0
17/06:00pm 19.6 14.9 14.4 72 3.0 NNW 32 35 17 19 1016.8 1016.8 0.0
17/05:30pm 19.5 14.8 14.3 72 3.0 NNW 32 39 17 21 1016.8 1016.8 0.0
17/05:00pm 19.1 14.1 13.9 72 3.0 NNW 33 41 18 22 1017.0 1017.0 0.0
17/04:30pm 19.3 14.3 13.9 71 3.1 NNW 33 41 18 22 1017.1 1017.1 0.0
17/04:00pm 19.9 14.1 13.8 68 3.5 NNW 37 46 20 25 1017.2 1017.2 0.0
17/03:30pm 20.2 14.3 14.6 70 3.3 N 39 46 21 25 1017.4 1017.4 0.0
17/03:00pm 20.5 15.3 14.4 68 3.5 N 35 44 19 24 1017.5 1017.5 0.0
17/02:30pm 20.7 16.0 14.4 67 3.7 N 32 41 17 22 1017.6 1017.6 0.0
17/02:00pm 22.0 18.5 14.4 62 4.5 N 26 33 14 18 1017.8 1017.8 0.0
17/01:30pm 24.6 21.2 13.8 51 6.3 NNW 24 32 13 17 1017.9 1017.9 0.0
17/01:00pm 23.8 20.3 13.4 52 6.0 NW 24 32 13 17 1018.2 1018.2 0.0
17/12:30pm 21.1 16.2 14.3 65 4.0 N 33 44 18 24 1018.5 1018.5 0.0
17/12:00pm 21.4 17.0 14.1 63 4.2 N 30 39 16 21 1018.9 1018.9 0.0
17/11:30am 23.1 20.8 13.0 53 5.8 NW 17 24 9 13 1019.2 1019.2 0.0
17/11:00am 21.1 18.1 12.0 56 5.1 NW 19 26 10 14 1019.5 1019.5 0.0
17/10:30am 20.8 18.1 12.8 60 4.5 NW 19 24 10 13 1019.8 1019.8 0.0
17/10:00am 19.5 17.1 12.5 64 3.9 NW 17 26 9 14 1019.9 1019.9 0.0
17/09:30am 17.9 14.6 11.5 66 3.5 WNW 20 26 11 14 1020.3 1020.3 0.0
17/09:00am 17.5 14.5 12.0 70 3.0 WNW 19 28 10 15 1020.4 1020.4 0.0
17/08:30am 15.7 13.2 11.1 74 2.5 WNW 15 22 8 12 1020.3 1020.3 0.0
17/08:00am 14.6 12.7 10.4 76 2.2 NW 11 15 6 8 1020.2 1020.2 0.0
17/07:30am 13.4 12.2 10.2 81 1.7 W 7 11 4 6 1020.4 1020.4 0.0
17/07:00am 12.1 10.6 9.1 82 1.5 WSW 7 9 4 5 1020.2 1020.2 0.0
17/06:30am 11.3 11.0 8.7 84 1.3 CALM 0 0 0 0 1020.0 1020.0 0.0
17/06:00am 11.4 10.0 9.0 85 1.2 SSW 6 7 3 4 1019.8 1019.8 0.0
17/05:30am 10.9 8.8 8.3 84 1.3 SSW 9 11 5 6 1019.9 1019.9 0.0
17/05:00am 11.1 9.3 8.1 82 1.5 SW 7 9 4 5 1019.8 1019.8 0.0
17/04:30am 11.5 9.4 8.2 80 1.6 WNW 9 11 5 6 1019.8 1019.8 0.0
17/04:00am 10.9 8.3 7.6 80 1.6 WNW 11 13 6 7 1020.0 1020.0 0.0
17/03:30am 11.0 8.0 7.5 79 1.7 WNW 13 15 7 8 1020.3 1020.3 0.0
17/03:00am 11.7 9.2 8.0 78 1.8 WNW 11 13 6 7 1020.7 1020.7 0.0
17/02:30am 11.9 9.2 7.4 74 2.2 NW 11 13 6 7 1021.0 1021.0 0.0
17/02:00am 12.7 11.1 8.2 74 2.2 WSW 6 7 3 4 1021.3 1021.3 0.0
17/01:30am 12.4 10.9 8.5 77 1.9 SW 6 7 3 4 1021.9 1021.9 0.0
17/01:00am 12.7 11.2 8.6 76 2.0 SSW 6 6 3 3 1022.4 1022.4 0.0
17/12:30am 12.6 10.9 8.3 75 2.1 SW 7 9 4 5 1022.9 1022.9 0.0
17/12:00am 12.3 9.7 7.8 74 2.2 SW 11 15 6 8 1023.1 1023.1 0.0
 
Date/Time
EDT
Temp
°C
App
Temp
°C
Dew
Point
°C
Rel
Hum
%
Delta-T
°C
Wind Press
QNH
hPa
Press
MSL
hPa
Rain since
9am
mm
Dir  Spd
km/h
Gust
km/h
Spd
kts
Gust
kts
16/11:30pm 12.6 9.7 8.1 74 2.2 SW 13 17 7 9 1023.1 1023.1 0.0
16/11:00pm 13.6 10.1 8.9 73 2.4 SW 17 19 9 10 1023.2 1023.2 0.0
16/10:30pm 12.9 10.7 7.8 71 2.5 WSW 9 13 5 7 1023.3 1023.3 0.0
16/10:00pm 13.7 10.8 8.1 69 2.8 SW 13 19 7 10 1023.6 1023.6 0.0
16/09:30pm 14.3 11.1 8.5 68 2.9 S 15 19 8 10 1023.4 1023.4 0.0
16/09:00pm 14.4 11.5 8.1 66 3.1 S 13 15 7 8 1023.2 1023.2 0.0
16/08:30pm 15.0 11.8 8.3 64 3.4 S 15 19 8 10 1023.1 1023.1 0.0
16/08:00pm 15.9 12.7 8.4 61 3.8 SSE 15 19 8 10 1023.4 1023.4 0.0
16/07:30pm 16.7 13.4 8.1 57 4.4 SSE 15 20 8 11 1023.5 1023.5 0.0
16/07:00pm 17.4 14.5 8.0 54 4.8 SE 13 19 7 10 1023.4 1023.4 0.0
16/06:30pm 17.6 13.9 7.9 53 4.9 SE 17 20 9 11 1023.2 1023.2 0.0
16/06:00pm 18.2 15.0 8.5 53 5.0 SE 15 19 8 10 1023.2 1023.2 0.0
16/05:30pm 18.7 15.6 8.7 52 5.2 SE 15 20 8 11 1023.4 1023.4 0.0
16/05:00pm 18.8 14.9 8.7 52 5.2 SE 19 24 10 13 1023.4 1023.4 0.0
16/04:30pm 19.0 14.8 8.4 50 5.5 SE 20 28 11 15 1023.7 1023.7 0.0
16/04:00pm 19.4 14.6 8.7 50 5.6 SE 24 32 13 17 1023.8 1023.8 0.0
16/03:30pm 19.4 14.0 8.1 48 5.8 SE 26 33 14 18 1024.0 1024.0 0.0
16/03:00pm 19.8 13.9 7.5 45 6.3 SE 28 33 15 18 1023.9 1023.9 0.0

Other Formats:

Comma delimited format used in spreadsheet applications
http://www.bom.gov.au/fwo/IDT60801/IDT60801.94983.axf

JavaScript Object Notation format (JSON) in row-major order
http://www.bom.gov.au/fwo/IDT60801/IDT60801.94983.json